Time;durP1;ratioP1;P1;durP2;ratioP2;P2;SDS_P1;SDS_P2;PMS_P1;PMS_P2;Temp;Humidity;BMP_temperature;BMP_pressure;BME280_temperature;BME280_humidity;BME280_pressure;Samples;Min_cycle;Max_cycle;Signal;HPM_P1;HPM_P2
2024/01/28 00:00:40;;;;;;;;;;;;;;;;;;5036921;28;19913;-84
2024/01/28 00:03:06;;;;;;;;;;;;;;;;;;5032061;28;19940;-84
2024/01/28 00:05:32;;;;;;;;;;;;;;;;;;5033624;28;20452;-84
2024/01/28 00:07:58;;;;;;;;;;;;;;;;;;5037806;28;20663;-84
2024/01/28 00:10:24;;;;;;;;;;;;;;;;;;5038067;28;19919;-83
2024/01/28 00:12:50;;;;;;;;;;;;;;;;;;5035475;28;20027;-84
2024/01/28 00:15:16;;;;;;;;;;;;;;;;;;5041129;28;19939;-83
2024/01/28 00:17:42;;;;;;;;;;;;;;;;;;5036279;28;19912;-84
2024/01/28 00:20:09;;;;;;;;;;;;;;;;;;5041441;28;19912;-83
2024/01/28 00:22:35;;;;;;;;;;;;;;;;;;5057848;28;19943;-85
2024/01/28 00:25:01;;;;;;;;;;;;;;;;;;5070553;28;19920;-82
2024/01/28 00:27:27;;;;;;;;;;;;;;;;;;5071690;28;19912;-83
2024/01/28 00:29:53;;;;;;;;;;;;;;;;;;5073650;28;20271;-85
2024/01/28 00:32:18;;;;;;;;;;;;;;;;;;5073640;28;19911;-84
2024/01/28 00:34:44;;;;;;;;;;;;;;;;;;5054497;28;19969;-84
2024/01/28 00:37:10;;;;;;;;;;;;;;;;;;5057442;28;20419;-85
2024/01/28 00:39:36;;;;;;;;;;;;;;;;;;5072006;28;20007;-85
2024/01/28 00:42:04;;;;;;;;;;;;;;;;;;5054984;28;20885;-84
2024/01/28 00:44:30;;;;;;;;;;;;;;;;;;5071675;28;20035;-85
2024/01/28 00:46:57;;;;;;;;;;;;;;;;;;5054737;28;19918;-83
2024/01/28 00:49:29;;;;;;;;;;;;;;;;;;5069740;28;19911;-84
2024/01/28 00:51:55;;;;;;;;;;;;;;;;;;5071372;28;19922;-84
2024/01/28 00:54:21;;;;;;;;;;;;;;;;;;5071323;28;19920;-86
2024/01/28 00:56:47;;;;;;;;;;;;;;;;;;5054221;28;19912;-84
2024/01/28 00:59:13;;;;;;;;;;;;;;;;;;5054253;28;19934;-84
2024/01/28 01:01:39;;;;;;;;;;;;;;;;;;5055169;28;19915;-84
2024/01/28 01:04:05;;;;;;;;;;;;;;;;;;5072219;28;19939;-85
2024/01/28 01:06:31;;;;;;;;;;;;;;;;;;5062815;28;20006;-85
2024/01/28 01:08:57;;;;;;;;;;;;;;;;;;5056689;28;19911;-85
2024/01/28 01:11:23;;;;;;;;;;;;;;;;;;5057497;28;19957;-85
2024/01/28 01:13:49;;;;;;;;;;;;;;;;;;5055411;28;19977;-85
2024/01/28 01:16:15;;;;;;;;;;;;;;;;;;5072174;28;19923;-86
2024/01/28 01:18:41;;;;;;;;;;;;;;;;;;5072224;28;19935;-85
2024/01/28 01:21:07;;;;;;;;;;;;;;;;;;5078742;28;19920;-84
2024/01/28 01:23:33;;;;;;;;;;;;;;;;;;5077595;28;19958;-85
2024/01/28 01:25:59;;;;;;;;;;;;;;;;;;5061499;28;20371;-85
2024/01/28 01:28:31;;;;;;;;;;;;;;;;;;5074798;28;20438;-86
2024/01/28 01:30:58;;;;;;;;;;;;;;;;;;5073462;28;19912;-84
2024/01/28 01:33:24;;;;;;;;;;;;;;;;;;5056279;28;19923;-84
2024/01/28 01:35:50;;;;;;;;;;;;;;;;;;5073023;28;19912;-85
2024/01/28 01:38:16;;;;;;;;;;;;;;;;;;5071520;28;20163;-85
2024/01/28 01:40:42;;;;;;;;;;;;;;;;;;5057091;28;19912;-85
2024/01/28 01:43:10;;;;;;;;;;;;;;;;;;5055680;28;19919;-84
2024/01/28 01:45:43;;;;;;;;;;;;;;;;;;5052212;28;19909;-85
2024/01/28 01:48:08;;;;;;;;;;;;;;;;;;5070249;28;19912;-85
2024/01/28 01:50:35;;;;;;;;;;;;;;;;;;5055149;28;19915;-84
2024/01/28 01:53:01;;;;;;;;;;;;;;;;;;5053425;28;19920;-85
2024/01/28 01:55:27;;;;;;;;;;;;;;;;;;5050100;28;19927;-85
2024/01/28 01:57:53;;;;;;;;;;;;;;;;;;5069015;28;19938;-85
2024/01/28 02:00:19;;;;;;;;;;;;;;;;;;5054777;28;19916;-87
2024/01/28 02:02:45;;;;;;;;;;;;;;;;;;5068848;28;19935;-86
2024/01/28 02:05:11;;;;;;;;;;;;;;;;;;5072165;28;19919;-85
2024/01/28 02:07:37;;;;;;;;;;;;;;;;;;5069990;28;19908;-85
2024/01/28 02:10:05;;;;;;;;;;;;;;;;;;5073097;28;19912;-87
2024/01/28 02:12:31;;;;;;;;;;;;;;;;;;5052006;28;19962;-85
2024/01/28 02:14:56;;;;;;;;;;;;;;;;;;5052994;28;20030;-84
2024/01/28 02:17:22;;;;;;;;;;;;;;;;;;5071446;28;19912;-84
2024/01/28 02:19:48;;;;;;;;;;;;;;;;;;5052512;28;19989;-84
2024/01/28 02:22:14;;;;;;;;;;;;;;;;;;5074457;28;20059;-84
2024/01/28 02:24:40;;;;;;;;;;;;;;;;;;5055313;28;19920;-85
2024/01/28 02:27:06;;;;;;;;;;;;;;;;;;5055345;28;19912;-85
2024/01/28 02:29:33;;;;;;;;;;;;;;;;;;5070122;28;19916;-85
2024/01/28 02:31:59;;;;;;;;;;;;;;;;;;5053574;28;20319;-84
2024/01/28 02:34:25;;;;;;;;;;;;;;;;;;5071468;28;20552;-85
2024/01/28 02:36:51;;;;;;;;;;;;;;;;;;5054647;28;20636;-84
2024/01/28 02:39:17;;;;;;;;;;;;;;;;;;5071760;28;19912;-84
2024/01/28 02:41:43;;;;;;;;;;;;;;;;;;5067725;28;20034;-86
2024/01/28 02:44:09;;;;;;;;;;;;;;;;;;5053009;28;20027;-85
2024/01/28 02:46:35;;;;;;;;;;;;;;;;;;5069638;28;19915;-84
2024/01/28 02:49:01;;;;;;;;;;;;;;;;;;5070446;28;20782;-85
2024/01/28 02:51:27;;;;;;;;;;;;;;;;;;5055366;28;19961;-86
2024/01/28 02:53:53;;;;;;;;;;;;;;;;;;5071630;28;19915;-84
2024/01/28 02:56:19;;;;;;;;;;;;;;;;;;5054329;28;19918;-84
2024/01/28 02:58:45;;;;;;;;;;;;;;;;;;5070966;28;19931;-84
2024/01/28 03:01:11;;;;;;;;;;;;;;;;;;5072723;28;20516;-84
2024/01/28 03:03:37;;;;;;;;;;;;;;;;;;5055707;28;19938;-85
2024/01/28 03:06:03;;;;;;;;;;;;;;;;;;5055109;28;19987;-84
2024/01/28 03:08:29;;;;;;;;;;;;;;;;;;5053567;28;19913;-83
2024/01/28 03:10:55;;;;;;;;;;;;;;;;;;5075295;28;19989;-83
2024/01/28 03:13:21;;;;;;;;;;;;;;;;;;5073639;28;20285;-84
2024/01/28 03:15:50;;;;;;;;;;;;;;;;;;5052839;28;19916;-84
2024/01/28 03:18:16;;;;;;;;;;;;;;;;;;5067508;28;19950;-84
2024/01/28 03:20:42;;;;;;;;;;;;;;;;;;5069557;28;19923;-85
2024/01/28 03:23:09;;;;;;;;;;;;;;;;;;5073426;28;19908;-86
2024/01/28 03:25:37;;;;;;;;;;;;;;;;;;5071729;28;19913;-86
2024/01/28 03:28:03;;;;;;;;;;;;;;;;;;5076467;28;19911;-85
2024/01/28 03:30:29;;;;;;;;;;;;;;;;;;5072142;28;20493;-85
2024/01/28 03:32:55;;;;;;;;;;;;;;;;;;5060753;28;19959;-85
2024/01/28 03:35:21;;;;;;;;;;;;;;;;;;5077218;28;20036;-85
2024/01/28 03:37:47;;;;;;;;;;;;;;;;;;5079264;28;19937;-85
2024/01/28 03:40:13;;;;;;;;;;;;;;;;;;5081631;28;19915;-85
2024/01/28 03:42:39;;;;;;;;;;;;;;;;;;5074912;28;19916;-85
2024/01/28 03:45:05;;;;;;;;;;;;;;;;;;5081268;28;19908;-84
2024/01/28 03:47:32;;;;;;;;;;;;;;;;;;5077443;28;19916;-84
2024/01/28 03:49:58;;;;;;;;;;;;;;;;;;5077956;28;19912;-86
2024/01/28 03:52:24;;;;;;;;;;;;;;;;;;5060502;28;20229;-85
2024/01/28 03:54:50;;;;;;;;;;;;;;;;;;5059719;28;19919;-84
2024/01/28 03:57:16;;;;;;;;;;;;;;;;;;5076463;28;20014;-83
2024/01/28 03:59:42;;;;;;;;;;;;;;;;;;5076887;28;19923;-84
2024/01/28 04:02:07;;;;;;;;;;;;;;;;;;5078461;28;19908;-84
2024/01/28 04:04:33;;;;;;;;;;;;;;;;;;5076710;28;19912;-83
2024/01/28 04:06:59;;;;;;;;;;;;;;;;;;5075681;28;19911;-84
2024/01/28 04:09:26;;;;;;;;;;;;;;;;;;5078220;28;19915;-85
2024/01/28 04:11:52;;;;;;;;;;;;;;;;;;5061596;28;20585;-84
2024/01/28 04:14:18;;;;;;;;;;;;;;;;;;5063078;28;19912;-85
2024/01/28 04:16:44;;;;;;;;;;;;;;;;;;5077268;28;19912;-84
2024/01/28 04:19:11;;;;;;;;;;;;;;;;;;5079656;28;19911;-85
2024/01/28 04:21:37;;;;;;;;;;;;;;;;;;5060426;28;20031;-84
2024/01/28 04:24:03;;;;;;;;;;;;;;;;;;5060258;28;19991;-85
2024/01/28 04:26:29;;;;;;;;;;;;;;;;;;5074300;28;20361;-85
2024/01/28 04:28:55;;;;;;;;;;;;;;;;;;5078701;28;19947;-84
2024/01/28 04:31:26;;;;;;;;;;;;;;;;;;5062660;28;19912;-84
2024/01/28 04:33:51;;;;;;;;;;;;;;;;;;5064561;28;20046;-85
2024/01/28 04:36:17;;;;;;;;;;;;;;;;;;5073785;28;20022;-85
2024/01/28 04:38:43;;;;;;;;;;;;;;;;;;5074567;28;19912;-85
2024/01/28 04:41:09;;;;;;;;;;;;;;;;;;5080063;28;19919;-86
2024/01/28 04:43:38;;;;;;;;;;;;;;;;;;5063268;28;19912;-85
2024/01/28 04:46:04;;;;;;;;;;;;;;;;;;5078082;28;19916;-85
2024/01/28 04:48:30;;;;;;;;;;;;;;;;;;5070990;28;19954;-83
2024/01/28 04:50:56;;;;;;;;;;;;;;;;;;5061210;28;19916;-85
2024/01/28 04:53:22;;;;;;;;;;;;;;;;;;5056464;28;19916;-85
2024/01/28 04:55:48;;;;;;;;;;;;;;;;;;5077715;28;19951;-85
2024/01/28 04:58:14;;;;;;;;;;;;;;;;;;5083065;28;19961;-85
2024/01/28 05:00:40;;;;;;;;;;;;;;;;;;5058542;28;19919;-76
2024/01/28 05:03:09;;;;;;;;;;;;;;;;;;5058124;28;19916;-78
2024/01/28 05:05:36;;;;;;;;;;;;;;;;;;5070364;28;19912;-76
2024/01/28 05:08:01;;;;;;;;;;;;;;;;;;5054828;28;20734;-75
2024/01/28 05:10:27;;;;;;;;;;;;;;;;;;5050369;28;19916;-75
2024/01/28 05:12:53;;;;;;;;;;;;;;;;;;5070640;28;19927;-75
2024/01/28 05:15:19;;;;;;;;;;;;;;;;;;5068926;28;20360;-75
2024/01/28 05:17:45;;;;;;;;;;;;;;;;;;5070154;28;19961;-76
2024/01/28 05:20:11;;;;;;;;;;;;;;;;;;5052954;28;19912;-74
2024/01/28 05:22:37;;;;;;;;;;;;;;;;;;5056421;28;19972;-76
2024/01/28 05:25:03;;;;;;;;;;;;;;;;;;5071686;28;19924;-74
2024/01/28 05:27:29;;;;;;;;;;;;;;;;;;5070557;28;20560;-76
2024/01/28 05:29:58;;;;;;;;;;;;;;;;;;5070443;28;19912;-76
2024/01/28 05:32:24;;;;;;;;;;;;;;;;;;5069356;28;19919;-75
2024/01/28 05:34:50;;;;;;;;;;;;;;;;;;5054932;28;19908;-76
2024/01/28 05:37:16;;;;;;;;;;;;;;;;;;5070663;28;19924;-76
2024/01/28 05:39:42;;;;;;;;;;;;;;;;;;5068154;28;19917;-75
2024/01/28 05:42:08;;;;;;;;;;;;;;;;;;5072691;28;19912;-75
2024/01/28 05:44:34;;;;;;;;;;;;;;;;;;5052684;28;20667;-75
2024/01/28 05:47:00;;;;;;;;;;;;;;;;;;5070894;28;19912;-76
2024/01/28 05:49:26;;;;;;;;;;;;;;;;;;5068426;28;19919;-75
2024/01/28 05:51:52;;;;;;;;;;;;;;;;;;5070803;28;20637;-75
2024/01/28 05:54:18;;;;;;;;;;;;;;;;;;5055765;28;19923;-77
2024/01/28 05:56:44;;;;;;;;;;;;;;;;;;5062618;28;20448;-75
2024/01/28 05:59:10;;;;;;;;;;;;;;;;;;5069793;28;19908;-76
2024/01/28 06:01:36;;;;;;;;;;;;;;;;;;5071352;28;19915;-79
2024/01/28 06:04:02;;;;;;;;;;;;;;;;;;5070829;28;19919;-76
2024/01/28 06:06:28;;;;;;;;;;;;;;;;;;5069741;28;19912;-76
2024/01/28 06:08:54;;;;;;;;;;;;;;;;;;5070640;28;19912;-77
2024/01/28 06:11:20;;;;;;;;;;;;;;;;;;5071741;28;19919;-76
2024/01/28 06:13:46;;;;;;;;;;;;;;;;;;5053169;28;20000;-76
2024/01/28 06:16:12;;;;;;;;;;;;;;;;;;5049661;28;20724;-76
2024/01/28 06:18:43;;;;;;;;;;;;;;;;;;5054647;28;19912;-76
2024/01/28 06:21:10;;;;;;;;;;;;;;;;;;5054280;28;19950;-77
2024/01/28 06:23:35;;;;;;;;;;;;;;;;;;5065439;28;20649;-77
2024/01/28 06:26:01;;;;;;;;;;;;;;;;;;5071744;28;19912;-77
2024/01/28 06:28:27;;;;;;;;;;;;;;;;;;5068064;28;19922;-76
2024/01/28 06:30:53;;;;;;;;;;;;;;;;;;5069407;28;20454;-77
2024/01/28 06:33:19;;;;;;;;;;;;;;;;;;5066274;28;20619;-76
2024/01/28 06:35:45;;;;;;;;;;;;;;;;;;5056310;28;20299;-76
2024/01/28 06:38:11;;;;;;;;;;;;;;;;;;5068254;28;20130;-76
2024/01/28 06:40:37;;;;;;;;;;;;;;;;;;5071191;28;19916;-76
2024/01/28 06:43:03;;;;;;;;;;;;;;;;;;5070180;28;20482;-76
2024/01/28 06:45:29;;;;;;;;;;;;;;;;;;5065982;28;20431;-78
2024/01/28 06:47:56;;;;;;;;;;;;;;;;;;5070366;28;19957;-76
2024/01/28 06:50:21;;;;;;;;;;;;;;;;;;5056534;28;19912;-77
2024/01/28 06:52:48;;;;;;;;;;;;;;;;;;5069199;28;19928;-78
2024/01/28 06:55:14;;;;;;;;;;;;;;;;;;5073180;28;19912;-76
2024/01/28 06:57:40;;;;;;;;;;;;;;;;;;5069876;28;19970;-76
2024/01/28 07:00:10;;;;;;;;;;;;;;;;;;5072845;28;19918;-77
2024/01/28 07:02:36;;;;;;;;;;;;;;;;;;5071268;28;19912;-77
2024/01/28 07:05:01;;;;;;;;;;;;;;;;;;5071698;28;19912;-77
2024/01/28 07:07:27;;;;;;;;;;;;;;;;;;5069275;28;19962;-76
2024/01/28 07:09:53;;;;;;;;;;;;;;;;;;5054856;28;19915;-77
2024/01/28 07:12:19;;;;;;;;;;;;;;;;;;5055145;28;19908;-76
2024/01/28 07:14:45;;;;;;;;;;;;;;;;;;5059491;28;20334;-77
2024/01/28 07:17:11;;;;;;;;;;;;;;;;;;5056171;28;20262;-76
2024/01/28 07:19:40;;;;;;;;;;;;;;;;;;5068086;28;19954;-77
2024/01/28 07:22:06;;;;;;;;;;;;;;;;;;5053021;28;19962;-77
2024/01/28 07:24:34;;;;;;;;;;;;;;;;;;5070817;28;20030;-76
2024/01/28 07:27:00;;;;;;;;;;;;;;;;;;5072775;28;19912;-76
2024/01/28 07:29:27;;;;;;;;;;;;;;;;;;5070987;28;19912;-76
2024/01/28 07:31:53;;;;;;;;;;;;;;;;;;5073419;28;19962;-76
2024/01/28 07:34:20;;;;;;;;;;;;;;;;;;5060229;28;19974;-76
2024/01/28 07:36:47;;;;;;;;;;;;;;;;;;5055220;28;19916;-75
2024/01/28 07:39:14;;;;;;;;;;;;;;;;;;5070790;28;20366;-78
2024/01/28 07:41:40;;;;;;;;;;;;;;;;;;5070397;28;19912;-78
2024/01/28 07:44:06;;;;;;;;;;;;;;;;;;5057262;28;19921;-76
2024/01/28 07:46:32;;;;;;;;;;;;;;;;;;5055538;28;20340;-76
2024/01/28 07:48:58;;;;;;;;;;;;;;;;;;5069326;28;20587;-76
2024/01/28 07:51:24;;;;;;;;;;;;;;;;;;5072327;28;20411;-76
2024/01/28 07:53:51;;;;;;;;;;;;;;;;;;5069272;28;19962;-76
2024/01/28 07:56:17;;;;;;;;;;;;;;;;;;5073187;28;19955;-76
2024/01/28 07:58:43;;;;;;;;;;;;;;;;;;5068260;28;19916;-78
2024/01/28 08:01:09;;;;;;;;;;;;;;;;;;5073390;28;20031;-76
2024/01/28 08:03:35;;;;;;;;;;;;;;;;;;5069409;28;20487;-77
2024/01/28 08:06:02;;;;;;;;;;;;;;;;;;5074117;28;19912;-76
2024/01/28 08:08:28;;;;;;;;;;;;;;;;;;5067855;28;19919;-77
2024/01/28 08:10:55;;;;;;;;;;;;;;;;;;5055505;28;19912;-77
2024/01/28 08:13:22;;;;;;;;;;;;;;;;;;5061233;28;20040;-77
2024/01/28 08:15:48;;;;;;;;;;;;;;;;;;5068243;28;20019;-77
2024/01/28 08:18:14;;;;;;;;;;;;;;;;;;5070184;28;19942;-76
2024/01/28 08:20:40;;;;;;;;;;;;;;;;;;5068629;28;19938;-76
2024/01/28 08:23:06;;;;;;;;;;;;;;;;;;5053856;28;21569;-77
2024/01/28 08:25:32;;;;;;;;;;;;;;;;;;5049692;28;19949;-76
2024/01/28 08:27:59;;;;;;;;;;;;;;;;;;5050844;28;19955;-76
2024/01/28 08:30:26;;;;;;;;;;;;;;;;;;5071472;28;19966;-76
2024/01/28 08:32:52;;;;;;;;;;;;;;;;;;5053344;28;19916;-76
2024/01/28 08:35:18;;;;;;;;;;;;;;;;;;5074461;28;19911;-76
2024/01/28 08:37:45;;;;;;;;;;;;;;;;;;5068757;28;20385;-76
2024/01/28 08:40:11;;;;;;;;;;;;;;;;;;5070381;28;19981;-76
2024/01/28 08:42:37;;;;;;;;;;;;;;;;;;5072708;28;19915;-77
2024/01/28 08:45:03;;;;;;;;;;;;;;;;;;5068816;28;19915;-76
2024/01/28 08:47:28;;;;;;;;;;;;;;;;;;5069985;28;19961;-78
2024/01/28 08:49:55;;;;;;;;;;;;;;;;;;5071039;28;20686;-78
2024/01/28 08:52:21;;;;;;;;;;;;;;;;;;5072936;28;20030;-76
2024/01/28 08:54:47;;;;;;;;;;;;;;;;;;5072586;28;20871;-76
2024/01/28 08:57:13;;;;;;;;;;;;;;;;;;5073411;28;19919;-76
2024/01/28 08:59:39;;;;;;;;;;;;;;;;;;5067672;28;19915;-76
2024/01/28 09:02:05;;;;;;;;;;;;;;;;;;5067995;28;19912;-76
2024/01/28 09:04:31;;;;;;;;;;;;;;;;;;5068871;28;19919;-77
2024/01/28 09:06:57;;;;;;;;;;;;;;;;;;5074914;28;19912;-77
2024/01/28 09:09:23;;;;;;;;;;;;;;;;;;5073534;28;19912;-76
2024/01/28 09:11:49;;;;;;;;;;;;;;;;;;5068807;28;19916;-76
2024/01/28 09:14:15;;;;;;;;;;;;;;;;;;5072573;28;19997;-76
2024/01/28 09:16:41;;;;;;;;;;;;;;;;;;5072886;28;19912;-76
2024/01/28 09:19:08;;;;;;;;;;;;;;;;;;5073441;28;19919;-76
2024/01/28 09:21:35;;;;;;;;;;;;;;;;;;5067955;28;19981;-76
2024/01/28 09:24:02;;;;;;;;;;;;;;;;;;5053384;28;20326;-76
2024/01/28 09:26:28;;;;;;;;;;;;;;;;;;5054202;28;19912;-76
2024/01/28 09:28:54;;;;;;;;;;;;;;;;;;5059321;28;19964;-77
2024/01/28 09:31:20;;;;;;;;;;;;;;;;;;5055301;28;20280;-78
2024/01/28 09:33:46;;;;;;;;;;;;;;;;;;5057530;28;20754;-77
2024/01/28 09:36:12;;;;;;;;;;;;;;;;;;5056610;28;20002;-78
2024/01/28 09:38:39;;;;;;;;;;;;;;;;;;5070976;28;19923;-77
2024/01/28 09:41:05;;;;;;;;;;;;;;;;;;5071487;28;19912;-79
2024/01/28 09:43:34;;;;;;;;;;;;;;;;;;5051187;28;20504;-77
2024/01/28 09:46:00;;;;;;;;;;;;;;;;;;5055071;28;19959;-78
2024/01/28 09:48:28;;;;;;;;;;;;;;;;;;5057547;28;20102;-79
2024/01/28 09:50:54;;;;;;;;;;;;;;;;;;5056514;28;19993;-77
2024/01/28 09:53:19;;;;;;;;;;;;;;;;;;5055086;28;19920;-77
2024/01/28 09:55:46;;;;;;;;;;;;;;;;;;5065562;28;19966;-79
2024/01/28 09:58:11;;;;;;;;;;;;;;;;;;5067934;28;19912;-77
2024/01/28 10:00:37;;;;;;;;;;;;;;;;;;5050290;28;19965;-77
2024/01/28 10:03:03;;;;;;;;;;;;;;;;;;5058581;28;19912;-77
2024/01/28 10:05:29;;;;;;;;;;;;;;;;;;5067816;28;19918;-77
2024/01/28 10:07:55;;;;;;;;;;;;;;;;;;5069175;28;19999;-79
2024/01/28 10:10:21;;;;;;;;;;;;;;;;;;5053885;28;19950;-76
2024/01/28 10:12:49;;;;;;;;;;;;;;;;;;5064678;28;19915;-77
2024/01/28 10:15:15;;;;;;;;;;;;;;;;;;5070054;28;19951;-79
2024/01/28 10:17:46;;;;;;;;;;;;;;;;;;5066322;28;19942;-77
2024/01/28 10:20:12;;;;;;;;;;;;;;;;;;5068406;28;19916;-78
2024/01/28 10:22:38;;;;;;;;;;;;;;;;;;5054225;28;19916;-78
2024/01/28 10:25:04;;;;;;;;;;;;;;;;;;5056013;28;19920;-78
2024/01/28 10:27:30;;;;;;;;;;;;;;;;;;5067279;28;19912;-78
2024/01/28 10:29:56;;;;;;;;;;;;;;;;;;5066240;28;19912;-78
2024/01/28 10:32:22;;;;;;;;;;;;;;;;;;5069329;28;19912;-77
2024/01/28 10:34:47;;;;;;;;;;;;;;;;;;5053197;28;19966;-77
2024/01/28 10:37:13;;;;;;;;;;;;;;;;;;5069802;28;19940;-77
2024/01/28 10:39:40;;;;;;;;;;;;;;;;;;5068174;28;19912;-77
2024/01/28 10:42:08;;;;;;;;;;;;;;;;;;5070109;28;19974;-77
2024/01/28 10:44:34;;;;;;;;;;;;;;;;;;5050476;28;20016;-76
2024/01/28 10:47:00;;;;;;;;;;;;;;;;;;5055068;28;20610;-77
2024/01/28 10:49:26;;;;;;;;;;;;;;;;;;5066939;28;19990;-78
2024/01/28 10:51:54;;;;;;;;;;;;;;;;;;5073157;28;20410;-76
2024/01/28 10:54:20;;;;;;;;;;;;;;;;;;5071686;28;20364;-76
2024/01/28 10:56:46;;;;;;;;;;;;;;;;;;5050723;28;20894;-76
2024/01/28 10:59:12;;;;;;;;;;;;;;;;;;5056967;28;19912;-76
2024/01/28 11:01:38;;;;;;;;;;;;;;;;;;5072408;28;19908;-75
2024/01/28 11:04:04;;;;;;;;;;;;;;;;;;5059308;28;19911;-77
2024/01/28 11:06:30;;;;;;;;;;;;;;;;;;5055612;28;19912;-78
2024/01/28 11:08:56;;;;;;;;;;;;;;;;;;5069663;28;19919;-74
2024/01/28 11:11:22;;;;;;;;;;;;;;;;;;5072684;28;20498;-77
2024/01/28 11:13:48;;;;;;;;;;;;;;;;;;5060201;28;19915;-77
2024/01/28 11:16:15;;;;;;;;;;;;;;;;;;5075012;28;19912;-77
2024/01/28 11:18:41;;;;;;;;;;;;;;;;;;5074202;28;20310;-77
2024/01/28 11:21:07;;;;;;;;;;;;;;;;;;5056915;28;20480;-77
2024/01/28 11:23:33;;;;;;;;;;;;;;;;;;5055485;28;19920;-79
2024/01/28 11:25:59;;;;;;;;;;;;;;;;;;5064566;28;21007;-77
2024/01/28 11:28:25;;;;;;;;;;;;;;;;;;5070028;28;20327;-77
2024/01/28 11:30:52;;;;;;;;;;;;;;;;;;5067956;28;19988;-75
2024/01/28 11:33:18;;;;;;;;;;;;;;;;;;5055411;28;20022;-77
2024/01/28 11:35:44;;;;;;;;;;;;;;;;;;5070176;28;20819;-75
2024/01/28 11:38:10;;;;;;;;;;;;;;;;;;5056781;28;19952;-76
2024/01/28 11:40:36;;;;;;;;;;;;;;;;;;5052141;28;20609;-76
2024/01/28 11:43:02;;;;;;;;;;;;;;;;;;5053407;28;20539;-76
2024/01/28 11:45:29;;;;;;;;;;;;;;;;;;5068246;28;20007;-76
2024/01/28 11:47:55;;;;;;;;;;;;;;;;;;5052823;28;19918;-76
2024/01/28 11:50:21;;;;;;;;;;;;;;;;;;5071611;28;19912;-76
2024/01/28 11:52:47;;;;;;;;;;;;;;;;;;5066143;28;20034;-75
2024/01/28 11:55:13;;;;;;;;;;;;;;;;;;5070281;28;19919;-76
2024/01/28 11:57:39;;;;;;;;;;;;;;;;;;5056211;28;19962;-75
2024/01/28 12:00:08;;;;;;;;;;;;;;;;;;5053551;28;20007;-75
2024/01/28 12:02:34;;;;;;;;;;;;;;;;;;5068404;28;21021;-75
2024/01/28 12:05:00;;;;;;;;;;;;;;;;;;5067566;28;19912;-75
2024/01/28 12:07:27;;;;;;;;;;;;;;;;;;5051116;28;19912;-75
2024/01/28 12:09:54;;;;;;;;;;;;;;;;;;5069991;28;19922;-77
2024/01/28 12:12:20;;;;;;;;;;;;;;;;;;5067707;28;19954;-77
2024/01/28 12:14:46;;;;;;;;;;;;;;;;;;5068590;28;19959;-75
2024/01/28 12:17:12;;;;;;;;;;;;;;;;;;5068335;28;19923;-76
2024/01/28 12:19:38;;;;;;;;;;;;;;;;;;5050562;28;19965;-75
2024/01/28 12:22:04;;;;;;;;;;;;;;;;;;5070868;28;19916;-75
2024/01/28 12:24:31;;;;;;;;;;;;;;;;;;5049821;28;19922;-76
2024/01/28 12:26:57;;;;;;;;;;;;;;;;;;5066388;28;19918;-75
2024/01/28 12:29:23;;;;;;;;;;;;;;;;;;5055651;28;20386;-75
2024/01/28 12:31:50;;;;;;;;;;;;;;;;;;5052726;28;19919;-75
2024/01/28 12:34:16;;;;;;;;;;;;;;;;;;5068531;28;19915;-76
2024/01/28 12:36:42;;;;;;;;;;;;;;;;;;5065838;28;19912;-76
2024/01/28 12:39:08;;;;;;;;;;;;;;;;;;5055516;28;19912;-77
2024/01/28 12:41:34;;;;;;;;;;;;;;;;;;5067597;28;19919;-77
2024/01/28 12:44:00;;;;;;;;;;;;;;;;;;5054239;28;19989;-75
2024/01/28 12:46:26;;;;;;;;;;;;;;;;;;5067680;28;19912;-75
2024/01/28 12:48:52;;;;;;;;;;;;;;;;;;5064561;28;19912;-75
2024/01/28 12:51:18;;;;;;;;;;;;;;;;;;5050697;28;19915;-75
2024/01/28 12:53:44;;;;;;;;;;;;;;;;;;5049819;28;20706;-75
2024/01/28 12:56:10;;;;;;;;;;;;;;;;;;5055554;28;19912;-75
2024/01/28 12:58:36;;;;;;;;;;;;;;;;;;5049999;28;19912;-75
2024/01/28 13:01:04;;;;;;;;;;;;;;;;;;5068816;28;19930;-75
2024/01/28 13:03:29;;;;;;;;;;;;;;;;;;5068672;28;19951;-75
2024/01/28 13:05:55;;;;;;;;;;;;;;;;;;5070368;28;20078;-75
2024/01/28 13:08:21;;;;;;;;;;;;;;;;;;5067307;28;19957;-76
2024/01/28 13:10:47;;;;;;;;;;;;;;;;;;5048982;28;19920;-76
2024/01/28 13:13:13;;;;;;;;;;;;;;;;;;5069951;28;19923;-76
2024/01/28 13:15:39;;;;;;;;;;;;;;;;;;5069621;28;19916;-76
2024/01/28 13:18:05;;;;;;;;;;;;;;;;;;5052125;28;20604;-76
2024/01/28 13:20:31;;;;;;;;;;;;;;;;;;5066345;28;19919;-75
2024/01/28 13:22:57;;;;;;;;;;;;;;;;;;5068962;28;19995;-76
2024/01/28 13:25:23;;;;;;;;;;;;;;;;;;5067288;28;19963;-77
2024/01/28 13:27:49;;;;;;;;;;;;;;;;;;5049654;28;20022;-74
2024/01/28 13:30:15;;;;;;;;;;;;;;;;;;5066599;28;19915;-77
2024/01/28 13:32:42;;;;;;;;;;;;;;;;;;5062052;28;19919;-76
2024/01/28 13:35:09;;;;;;;;;;;;;;;;;;5069057;28;20011;-75
2024/01/28 13:37:36;;;;;;;;;;;;;;;;;;5065501;28;19913;-76
2024/01/28 13:40:02;;;;;;;;;;;;;;;;;;5053959;28;19912;-75
2024/01/28 13:42:29;;;;;;;;;;;;;;;;;;5066466;28;20006;-75
2024/01/28 13:44:55;;;;;;;;;;;;;;;;;;5063680;28;19940;-74
2024/01/28 13:47:21;;;;;;;;;;;;;;;;;;5067013;28;20309;-75
2024/01/28 13:49:46;;;;;;;;;;;;;;;;;;5064474;28;19920;-76
2024/01/28 13:52:12;;;;;;;;;;;;;;;;;;5069125;28;19951;-76
2024/01/28 13:54:38;;;;;;;;;;;;;;;;;;5050165;28;19920;-76
2024/01/28 13:57:05;;;;;;;;;;;;;;;;;;5073187;28;19919;-76
2024/01/28 13:59:30;;;;;;;;;;;;;;;;;;5069205;28;19915;-75
2024/01/28 14:01:57;;;;;;;;;;;;;;;;;;5072366;28;20435;-75
2024/01/28 14:04:22;;;;;;;;;;;;;;;;;;5071462;28;19916;-75
2024/01/28 14:06:48;;;;;;;;;;;;;;;;;;5063922;28;19937;-77
2024/01/28 14:09:16;;;;;;;;;;;;;;;;;;5068675;28;19912;-75
2024/01/28 14:11:42;;;;;;;;;;;;;;;;;;5066297;28;20452;-74
2024/01/28 14:14:08;;;;;;;;;;;;;;;;;;5068363;28;19923;-76
2024/01/28 14:16:35;;;;;;;;;;;;;;;;;;5066278;28;19916;-75
2024/01/28 14:19:01;;;;;;;;;;;;;;;;;;5051862;28;19912;-76
2024/01/28 14:21:28;;;;;;;;;;;;;;;;;;5049616;28;20377;-77
2024/01/28 14:23:54;;;;;;;;;;;;;;;;;;5067475;28;19955;-76
2024/01/28 14:26:20;;;;;;;;;;;;;;;;;;5067023;28;19947;-76
2024/01/28 14:28:46;;;;;;;;;;;;;;;;;;5050081;28;19912;-75
2024/01/28 14:31:12;;;;;;;;;;;;;;;;;;5051454;28;19957;-75
2024/01/28 14:33:38;;;;;;;;;;;;;;;;;;5055284;28;20333;-75
2024/01/28 14:36:04;;;;;;;;;;;;;;;;;;5059463;28;19916;-74
2024/01/28 14:38:30;;;;;;;;;;;;;;;;;;5067601;28;19911;-75
2024/01/28 14:40:56;;;;;;;;;;;;;;;;;;5054965;28;20002;-75
2024/01/28 14:43:22;;;;;;;;;;;;;;;;;;5065727;28;19912;-75
2024/01/28 14:45:48;;;;;;;;;;;;;;;;;;5065162;28;19922;-74
2024/01/28 14:48:15;;;;;;;;;;;;;;;;;;5068418;28;20390;-74
2024/01/28 14:50:41;;;;;;;;;;;;;;;;;;5064410;28;20552;-76
2024/01/28 14:53:07;;;;;;;;;;;;;;;;;;5068390;28;20384;-76
2024/01/28 14:55:33;;;;;;;;;;;;;;;;;;5065056;28;19916;-75
2024/01/28 14:57:59;;;;;;;;;;;;;;;;;;5064324;28;19947;-76
2024/01/28 15:00:25;;;;;;;;;;;;;;;;;;5067078;28;20550;-74
2024/01/28 15:02:51;;;;;;;;;;;;;;;;;;5066400;28;19916;-74
2024/01/28 15:05:17;;;;;;;;;;;;;;;;;;5066994;28;19912;-74
2024/01/28 15:07:43;;;;;;;;;;;;;;;;;;5049992;28;19912;-77
2024/01/28 15:10:09;;;;;;;;;;;;;;;;;;5068916;28;19912;-76
2024/01/28 15:12:35;;;;;;;;;;;;;;;;;;5065957;28;19912;-75
2024/01/28 15:15:01;;;;;;;;;;;;;;;;;;5052351;28;19920;-75
2024/01/28 15:17:27;;;;;;;;;;;;;;;;;;5066082;28;19912;-75
2024/01/28 15:19:53;;;;;;;;;;;;;;;;;;5071836;28;19943;-75
2024/01/28 15:22:19;;;;;;;;;;;;;;;;;;5071431;28;19921;-75
2024/01/28 15:24:45;;;;;;;;;;;;;;;;;;5068633;28;19942;-75
2024/01/28 15:27:11;;;;;;;;;;;;;;;;;;5072105;28;20007;-77
2024/01/28 15:29:37;;;;;;;;;;;;;;;;;;5068742;28;19912;-76
2024/01/28 15:32:03;;;;;;;;;;;;;;;;;;5070380;28;19924;-76
2024/01/28 15:34:29;;;;;;;;;;;;;;;;;;5068597;28;19923;-75
2024/01/28 15:36:55;;;;;;;;;;;;;;;;;;5050749;28;19912;-74
2024/01/28 15:39:21;;;;;;;;;;;;;;;;;;5071085;28;20006;-75
2024/01/28 15:41:49;;;;;;;;;;;;;;;;;;5051880;28;20689;-75
2024/01/28 15:44:15;;;;;;;;;;;;;;;;;;5053307;28;19952;-75
2024/01/28 15:46:41;;;;;;;;;;;;;;;;;;5061599;28;20066;-76
2024/01/28 15:49:07;;;;;;;;;;;;;;;;;;5052827;28;20618;-75
2024/01/28 15:51:33;;;;;;;;;;;;;;;;;;5050087;28;19920;-76
2024/01/28 15:53:59;;;;;;;;;;;;;;;;;;5050605;28;20376;-76
2024/01/28 15:56:25;;;;;;;;;;;;;;;;;;5050754;28;19912;-77
2024/01/28 15:58:51;;;;;;;;;;;;;;;;;;5067171;28;19912;-76
2024/01/28 16:01:17;;;;;;;;;;;;;;;;;;5070061;28;19916;-75
2024/01/28 16:03:43;;;;;;;;;;;;;;;;;;5068309;28;19912;-76
2024/01/28 16:06:09;;;;;;;;;;;;;;;;;;5064621;28;19912;-76
2024/01/28 16:08:35;;;;;;;;;;;;;;;;;;5052661;28;20474;-76
2024/01/28 16:11:01;;;;;;;;;;;;;;;;;;5068066;28;19955;-76
2024/01/28 16:13:27;;;;;;;;;;;;;;;;;;5051841;28;20017;-77
2024/01/28 16:15:53;;;;;;;;;;;;;;;;;;5050870;28;20361;-76
2024/01/28 16:18:19;;;;;;;;;;;;;;;;;;5051038;28;19912;-77
2024/01/28 16:20:45;;;;;;;;;;;;;;;;;;5065643;28;19965;-76
2024/01/28 16:23:11;;;;;;;;;;;;;;;;;;5065697;28;20351;-77
2024/01/28 16:25:37;;;;;;;;;;;;;;;;;;5061760;28;19920;-75
2024/01/28 16:28:03;;;;;;;;;;;;;;;;;;5049455;28;19919;-76
2024/01/28 16:30:30;;;;;;;;;;;;;;;;;;5049641;28;19923;-75
2024/01/28 16:32:56;;;;;;;;;;;;;;;;;;5050816;28;20390;-74
2024/01/28 16:35:22;;;;;;;;;;;;;;;;;;5049591;28;20471;-75
2024/01/28 16:37:50;;;;;;;;;;;;;;;;;;5044656;28;19916;-75